Pagina principale
METAR-TAF:

METAR-TAF

Aeroporti :

Aeroporto di Zagabria-Franjo Tuđman

Zagabria, Croazia

latitudine: 45-44N, longitudine: 016-04E, altezza: 106 m

Osservazione

Il bollettino è stato emesso 38 minuti fa, alle 13:00 UTC
Vento 7 kt da est/nord-est, variando fra nord/nord-est e sud-est
Temperature 4°C
Umidità 48%
Pressione 1038 hPa
Visibilità 10 km o più
Poco nuvoloso ad un'altezza di 3700 ft

METAR: LDZA 091300Z 07007KT 020V130 9999 FEW037 04/M06 Q1038 NOSIG

Ora: 14:38 (13:38 UTC)

Previsione

Il bollettino è stato emesso 2 ore e 13 minuti fa, alle 11:25 UTC
Previsione valida dal 09 alle 12 UTC al 10 alle 12 UTC
Vento 5 kt da nord-est
Visibilità 10 km o più
nessuna nube inferiore a 1500 m e nessun cumulonembo
Probabilità 30%
dal 10 alle 04 UTC al 10 alle 07 UTC
Visibilità: 3000 m
foschia

TAF: LDZA 091125Z 0912/1012 04005KT CAVOK TX04/0913Z TNM11/1006Z PROB30 1004/1007 3000 BR

Osservazioni e previsioni meteorologiche di più di 4000 aeroporti (messaggi METAR e TAF).

Le stazioni disponibili sono rappresentate dai dischi gialli e rossi sulla carta.

Puntare il mouse per vedere il nome della stazione.

Clicca sopra per visualizzare le osservazioni e previsioni meteorologiche.

Per cambiare la mappa : fare clic sui pulsanti verdi con una croce nera per ingrandire, il pulsante verde con un trattino per diminuire, o sulla freccia verde per le mappe adiacenti.


METAR-TAF: